• Join FlightAware (Why Join?)
  • Login
  • US Flag 
Trick or treat! (Boo!!) 
09:48AM EDT


 

Airport Tracker/Info


-or-


 

Live Flight TrackerFlight Track Log ✈ GJS3649 ✈ 09-Feb-2014 ✈ KIAD - KPWM

Flight Track Log - Related Links

Times and Time Zones

All times are in EST time to prevent confusion due to time zone crossing. See the GJS3649 flight status page for this flight to view local times or setup timezone preferences in your user account.

Time Position Orientation Groundspeed Altitude Reporting Facility
EST Latitude Longitude Course Direction KTS MPH feet Rate Location/Type
12:53PM 39.0483 -77.5000 47° Northeast 247 284 6,100  Level Washington Center
12:54PM 39.2067 -77.1065 47° Northeast  Level Estimated
12:54PM 39.1200 -77.4511 28° Northeast 269 310 8,700  Level Washington Center
12:55PM 39.2929 -76.9881 47° Northeast  Level Estimated
12:55PM 39.1672 -77.3506 59° Northeast 293 337 10,000  Level Washington Center
12:56PM 39.3789 -76.8694 47° Northeast  Level Estimated
12:56PM 39.1544 -77.2297 98° East 287 330 11,300  Level Washington Center
12:57PM 39.4649 -76.7504 47° Northeast  Level Estimated
12:57PM 39.1231 -77.0872 106° East 327 376 13,700  Level Washington Center
01:00PM 39.1275 -76.6431 46° Northeast 408 470 20,100 1,980 Climbing Washington Center
01:01PM 39.1353 -76.4828 86° East 429 494 21,600 960 Climbing Washington Center
01:03PM 39.1622 -76.1403 44° Northeast 471 542 23,000 420 Climbing Washington Center
01:04PM 39.1836 -75.9639 81° East 486 559 23,000 540 Level Washington Center
01:05PM 39.2467 -75.8086 62° Northeast 486 559 24,100 1,140 Climbing Washington Center
01:06PM 39.8467 -76.1003 46° Northeast  Level Estimated
01:06PM 39.3467 -75.6800 45° Northeast 478 550 25,300  Level Washington Center
01:07PM 39.4447 -75.5539 45° Northeast 487 560 26,400 1,020 Climbing Washington Center
01:09PM 39.6686 -75.2608 45° Northeast 520 598 28,800 1,080 Climbing Boston Center
01:10PM 39.7678 -75.1192 48° Northeast 526 605 30,000 1,140 Climbing Boston Center
01:12PM 39.8856 -74.9525 47° Northeast 526 605 31,300 1,020 Climbing New York Center
01:13PM 39.9928 -74.7975 48° Northeast 529 609 32,200 720 Climbing New York Center
01:15PM 40.1783 -74.5403 47° Northeast 541 623 33,500 660 Climbing Boston Center
01:17PM 40.4069 -74.2192 47° Northeast 549 632 35,000 720 Climbing Boston Center
01:18PM 40.5117 -74.0733 47° Northeast 551 634 35,800 600 Climbing Boston Center
01:20PM 40.7131 -73.7825 48° Northeast 546 628 37,000 360 Climbing Boston Center
01:21PM 40.8169 -73.6328 47° Northeast 552 635 37,000  Level Boston Center
01:23PM 40.9886 -73.3406 52° Northeast 554 638 37,000  Level Boston Center
01:26PM 41.2914 -72.8208 52° Northeast 551 634 37,000  Level Boston Center
01:28PM 41.4961 -72.4636 53° Northeast 549 632 37,000  Level Boston Center
01:29PM 41.5794 -72.3181 53° Northeast 558 642 37,000  Level Boston Center
01:30PM 41.6706 -72.1558 53° Northeast 552 635 37,000  Level Boston Center
01:31PM 41.7628 -71.9933 53° Northeast 552 635 37,000  Level Boston Center
01:32PM 41.8733 -71.7958 53° Northeast 556 640 37,000  Level Boston Center
01:33PM 41.9644 -71.6303 53° Northeast 556 640 37,000 -480 Level Boston Center
01:35PM 42.1497 -71.2967 57° Northeast 560 644 35,700 -1,800 Descending Boston Center
01:36PM 42.2478 -71.1178 53° Northeast 558 642 31,600 -3,660 Descending Boston Center
01:37PM 42.3522 -70.9728 46° Northeast 535 616 28,300 -2,760 Descending Boston Center
01:38PM 42.4631 -70.8622 36° Northeast 500 575 26,000 -2,220 Descending Boston Center
01:39PM 42.5617 -70.7611 37° Northeast 490 564 23,800 -2,460 Descending Boston Center
01:40PM 42.6800 -70.6403 37° Northeast 484 557 21,000 -2,760 Descending Boston Center
01:41PM 42.8050 -70.5614 25° Northeast 450 518 18,200 -2,520 Descending Boston Center
01:42PM 42.9136 -70.4931 25° Northeast 437 503 15,900 -2,400 Descending Boston Center
01:43PM 43.0161 -70.4264 25° Northeast 415 478 13,400 -1,920 Descending Boston Center
01:46PM 43.2917 -70.3383 101° East 280 322 8,200 -1,740 Descending Boston Center
01:47PM 43.3661 -70.3456 356° North 268 308 6,400 -1,500 Descending Boston Center
01:48PM 43.4361 -70.3594 352° North 254 292 5,200 -1,140 Descending Boston Center
01:50PM 43.5697 -70.3928 318° Northwest 225 259 3,000 -1,140 Descending Boston Center
01:51PM 43.6203 -70.3947 358° North 188 216 1,900 -1,140 Descending Boston Center
01:52PM 43.6333 -70.3000 101° East  Level FlightAware Approximate
01:52PM 43.6492 -70.3619 39° Northeast 141 162 800  Level Boston Center
01:54PM 43.6456 -70.3086 101° East  Level Estimated
02:01PM 43.6456 -70.3086 101° East  Level Estimated
02:02PM 43.6456 -70.3086 101° East  Level Estimated
02:03PM 43.6456 -70.3086 101° East  Level Estimated